This is the latest recevied weather packets stored in our database for station/object DK7LH-6. If no packets are shown the sender has not sent any weather packets the latest 10 day(s).
| Time | Temp. | Humidity | Pressure | Rain* | Wind** | Luminosity | Snow |
|---|---|---|---|---|---|---|---|
| 1778063418 | 10° C | 79% | 1008 hPa | 0 mm | - | 133 W/m² | - |
| 1778062550 | 10° C | 78% | 1008 hPa | 0 mm | - | 129 W/m² | - |
| 1778061620 | 10° C | 75% | 1008 hPa | 0 mm | - | 134 W/m² | - |
| 1778060752 | 10.56° C | 73% | 1007.8 hPa | 0 mm | - | 128 W/m² | - |
| 1778059822 | 10.56° C | 72% | 1007.9 hPa | 0 mm | - | 138 W/m² | - |
| 1778058954 | 10.56° C | 70% | 1007.7 hPa | 0 mm | - | 120 W/m² | - |
| 1778058024 | 10.56° C | 70% | 1007.6 hPa | 0 mm | - | 137 W/m² | - |
| 1778057157 | 10° C | 71% | 1007.6 hPa | 0 mm | - | 130 W/m² | - |
| 1778056226 | 10° C | 72% | 1007.5 hPa | 0 mm | - | 115 W/m² | - |
| 1778055358 | 10° C | 69% | 1007.2 hPa | 0 mm | - | 136 W/m² | - |
| 1778054428 | 10° C | 72% | 1007.1 hPa | 0 mm | - | 107 W/m² | - |
| 1778053560 | 10° C | 74% | 1007 hPa | 0 mm | - | 77 W/m² | - |
| 1778052630 | 10° C | 75% | 1007 hPa | 0 mm | - | 75 W/m² | - |
| 1778051762 | 9.44° C | 76% | 1006.9 hPa | 0 mm | - | 84 W/m² | - |
| 1778050864 | 9.44° C | 78% | 1006.9 hPa | 0 mm | - | 85 W/m² | - |
| 1778049934 | 9.44° C | 80% | 1006.9 hPa | 0 mm | - | 75 W/m² | - |
| 1778049066 | 9.44° C | 81% | 1006.8 hPa | 0 mm | - | 50 W/m² | - |
| 1778048136 | 8.89° C | 82% | 1006.8 hPa | 0 mm | - | 42 W/m² | - |
| 1778047268 | 8.89° C | 83% | 1006.9 hPa | 0 mm | - | 34 W/m² | - |
| 1778046338 | 8.89° C | 83% | 1006.9 hPa | 0 mm | - | 24 W/m² | - |
| 1778045469 | 8.89° C | 83% | 1007 hPa | 0 mm | - | 14 W/m² | - |
| 1778044539 | 8.89° C | 83% | 1006.8 hPa | 0 mm | - | 9 W/m² | - |
| 1778043672 | 8.89° C | 84% | 1006.9 hPa | 0 mm | - | 7 W/m² | - |
| 1778042741 | 9.44° C | 83% | 1006.9 hPa | 0 mm | - | 6 W/m² | - |
| 1778041873 | 9.44° C | 81% | 1006.9 hPa | 0 mm | - | 4 W/m² | - |
* Rain latest hour (hover to see other rain measurements)
** Current wind speed in m/s (hover to see current wind gust speed)